Terminal Aerodrome Forecast
Issued by NWS

Home | Current Version | Previous Version | Text Only | Print | Product List | Glossary On
Versions: 1 2 3 4 5 6 7 8 9 10 11 12 13 14 15 16 17 18 19 20
290
FTUS41 KBTV 101125
TAFMPV
TAF
KMPV 101125Z 1012/1112 32007G16KT P6SM BKN035
     FM101600 32010KT P6SM VCSH BKN045
     FM102100 30004KT P6SM SCT090
     FM110000 00000KT P6SM SCT120=

USA.gov is the U.S. government's official web portal to all federal, state and local government web resources and services.